sensor_id;sensor_type;location;lat;lon;timestamp;P1;durP1;ratioP1;P2;durP2;ratioP2
16577;SDS011;8401;52.528;13.340;2024-01-16T00:00:14;2.80;;;1.70;;
16577;SDS011;8401;52.528;13.340;2024-01-16T00:02:40;3.53;;;1.77;;
16577;SDS011;8401;52.528;13.340;2024-01-16T00:05:06;3.77;;;1.53;;
16577;SDS011;8401;52.528;13.340;2024-01-16T00:07:31;7.80;;;1.90;;
16577;SDS011;8401;52.528;13.340;2024-01-16T00:09:59;3.43;;;1.63;;
16577;SDS011;8401;52.528;13.340;2024-01-16T00:12:25;4.93;;;1.60;;
16577;SDS011;8401;52.528;13.340;2024-01-16T00:14:50;6.13;;;2.00;;
16577;SDS011;8401;52.528;13.340;2024-01-16T00:17:16;4.13;;;1.80;;
16577;SDS011;8401;52.528;13.340;2024-01-16T00:19:41;3.30;;;1.83;;
16577;SDS011;8401;52.528;13.340;2024-01-16T00:22:07;4.47;;;1.70;;
16577;SDS011;8401;52.528;13.340;2024-01-16T00:24:33;4.80;;;1.73;;
16577;SDS011;8401;52.528;13.340;2024-01-16T00:26:58;5.27;;;2.33;;
16577;SDS011;8401;52.528;13.340;2024-01-16T00:29:24;6.13;;;2.20;;
16577;SDS011;8401;52.528;13.340;2024-01-16T00:31:50;3.87;;;1.50;;
16577;SDS011;8401;52.528;13.340;2024-01-16T00:34:15;4.63;;;1.60;;
16577;SDS011;8401;52.528;13.340;2024-01-16T00:36:41;5.43;;;1.93;;
16577;SDS011;8401;52.528;13.340;2024-01-16T00:39:07;3.40;;;1.80;;
16577;SDS011;8401;52.528;13.340;2024-01-16T00:41:33;6.43;;;1.90;;
16577;SDS011;8401;52.528;13.340;2024-01-16T00:43:58;2.97;;;1.67;;
16577;SDS011;8401;52.528;13.340;2024-01-16T00:46:24;3.33;;;1.87;;
16577;SDS011;8401;52.528;13.340;2024-01-16T00:48:49;2.63;;;1.50;;
16577;SDS011;8401;52.528;13.340;2024-01-16T00:51:15;3.40;;;1.47;;
16577;SDS011;8401;52.528;13.340;2024-01-16T00:53:41;3.77;;;2.27;;
16577;SDS011;8401;52.528;13.340;2024-01-16T00:56:07;6.63;;;2.40;;
16577;SDS011;8401;52.528;13.340;2024-01-16T00:58:34;3.50;;;1.77;;
16577;SDS011;8401;52.528;13.340;2024-01-16T01:00:59;4.47;;;1.90;;
16577;SDS011;8401;52.528;13.340;2024-01-16T01:03:25;3.63;;;1.77;;
16577;SDS011;8401;52.528;13.340;2024-01-16T01:05:52;2.57;;;1.10;;
16577;SDS011;8401;52.528;13.340;2024-01-16T01:08:18;2.57;;;1.10;;
16577;SDS011;8401;52.528;13.340;2024-01-16T01:10:44;2.50;;;1.10;;
16577;SDS011;8401;52.528;13.340;2024-01-16T01:13:10;2.63;;;1.17;;
16577;SDS011;8401;52.528;13.340;2024-01-16T01:15:35;3.03;;;1.30;;
16577;SDS011;8401;52.528;13.340;2024-01-16T01:18:01;3.17;;;1.00;;
16577;SDS011;8401;52.528;13.340;2024-01-16T01:20:27;2.10;;;1.00;;
16577;SDS011;8401;52.528;13.340;2024-01-16T01:22:52;2.10;;;1.03;;
16577;SDS011;8401;52.528;13.340;2024-01-16T01:25:18;4.37;;;0.90;;
16577;SDS011;8401;52.528;13.340;2024-01-16T01:27:44;8.17;;;1.30;;
16577;SDS011;8401;52.528;13.340;2024-01-16T01:30:09;3.50;;;0.93;;
16577;SDS011;8401;52.528;13.340;2024-01-16T01:32:36;3.03;;;1.10;;
16577;SDS011;8401;52.528;13.340;2024-01-16T01:35:02;1.47;;;1.10;;
16577;SDS011;8401;52.528;13.340;2024-01-16T01:37:28;3.40;;;1.30;;
16577;SDS011;8401;52.528;13.340;2024-01-16T01:39:53;4.53;;;1.10;;
16577;SDS011;8401;52.528;13.340;2024-01-16T01:42:19;2.67;;;0.93;;
16577;SDS011;8401;52.528;13.340;2024-01-16T01:44:44;2.83;;;1.30;;
16577;SDS011;8401;52.528;13.340;2024-01-16T01:47:10;4.17;;;1.53;;
16577;SDS011;8401;52.528;13.340;2024-01-16T01:49:36;2.37;;;1.33;;
16577;SDS011;8401;52.528;13.340;2024-01-16T01:52:03;3.13;;;1.23;;
16577;SDS011;8401;52.528;13.340;2024-01-16T01:54:29;3.23;;;1.13;;
16577;SDS011;8401;52.528;13.340;2024-01-16T01:56:58;4.63;;;1.37;;
16577;SDS011;8401;52.528;13.340;2024-01-16T01:59:24;2.00;;;1.30;;
16577;SDS011;8401;52.528;13.340;2024-01-16T02:01:51;3.60;;;1.57;;
16577;SDS011;8401;52.528;13.340;2024-01-16T02:04:20;1.13;;;0.93;;
16577;SDS011;8401;52.528;13.340;2024-01-16T02:06:48;4.70;;;1.50;;
16577;SDS011;8401;52.528;13.340;2024-01-16T02:09:14;1.77;;;1.17;;
16577;SDS011;8401;52.528;13.340;2024-01-16T02:11:42;2.63;;;1.00;;
16577;SDS011;8401;52.528;13.340;2024-01-16T02:14:08;4.13;;;1.57;;
16577;SDS011;8401;52.528;13.340;2024-01-16T02:16:38;1.43;;;1.00;;
16577;SDS011;8401;52.528;13.340;2024-01-16T02:19:05;2.73;;;1.00;;
16577;SDS011;8401;52.528;13.340;2024-01-16T02:24:09;2.87;;;1.30;;
16577;SDS011;8401;52.528;13.340;2024-01-16T02:26:38;3.20;;;1.30;;
16577;SDS011;8401;52.528;13.340;2024-01-16T02:29:04;1.60;;;1.17;;
16577;SDS011;8401;52.528;13.340;2024-01-16T02:31:33;2.87;;;1.50;;
16577;SDS011;8401;52.528;13.340;2024-01-16T02:33:59;1.83;;;1.20;;
16577;SDS011;8401;52.528;13.340;2024-01-16T02:36:25;1.73;;;1.30;;
16577;SDS011;8401;52.528;13.340;2024-01-16T02:38:52;2.40;;;1.20;;
16577;SDS011;8401;52.528;13.340;2024-01-16T02:41:18;2.40;;;1.23;;
16577;SDS011;8401;52.528;13.340;2024-01-16T02:43:44;3.97;;;1.30;;
16577;SDS011;8401;52.528;13.340;2024-01-16T02:46:09;4.53;;;1.30;;
16577;SDS011;8401;52.528;13.340;2024-01-16T02:48:35;2.40;;;1.40;;
16577;SDS011;8401;52.528;13.340;2024-01-16T02:51:01;3.13;;;1.30;;
16577;SDS011;8401;52.528;13.340;2024-01-16T02:53:28;1.93;;;1.00;;
16577;SDS011;8401;52.528;13.340;2024-01-16T02:55:54;3.83;;;1.33;;
16577;SDS011;8401;52.528;13.340;2024-01-16T02:58:20;4.10;;;1.13;;
16577;SDS011;8401;52.528;13.340;2024-01-16T03:00:46;3.53;;;1.60;;
16577;SDS011;8401;52.528;13.340;2024-01-16T03:03:12;3.87;;;1.53;;
16577;SDS011;8401;52.528;13.340;2024-01-16T03:05:39;3.77;;;1.40;;
16577;SDS011;8401;52.528;13.340;2024-01-16T03:08:05;3.97;;;1.70;;
16577;SDS011;8401;52.528;13.340;2024-01-16T03:10:31;3.83;;;1.53;;
16577;SDS011;8401;52.528;13.340;2024-01-16T03:12:57;2.97;;;1.37;;
16577;SDS011;8401;52.528;13.340;2024-01-16T03:15:22;6.60;;;2.10;;
16577;SDS011;8401;52.528;13.340;2024-01-16T03:17:48;1.77;;;1.30;;
16577;SDS011;8401;52.528;13.340;2024-01-16T03:20:14;2.80;;;1.50;;
16577;SDS011;8401;52.528;13.340;2024-01-16T03:22:40;3.20;;;1.40;;
16577;SDS011;8401;52.528;13.340;2024-01-16T03:25:07;3.67;;;1.90;;
16577;SDS011;8401;52.528;13.340;2024-01-16T03:27:34;4.67;;;2.03;;
16577;SDS011;8401;52.528;13.340;2024-01-16T03:30:00;5.37;;;1.50;;
16577;SDS011;8401;52.528;13.340;2024-01-16T03:32:26;2.87;;;1.70;;
16577;SDS011;8401;52.528;13.340;2024-01-16T03:34:52;5.17;;;2.10;;
16577;SDS011;8401;52.528;13.340;2024-01-16T03:37:17;3.93;;;1.87;;
16577;SDS011;8401;52.528;13.340;2024-01-16T03:39:43;2.73;;;1.80;;
16577;SDS011;8401;52.528;13.340;2024-01-16T03:42:10;5.23;;;2.03;;
16577;SDS011;8401;52.528;13.340;2024-01-16T03:44:38;2.67;;;1.63;;
16577;SDS011;8401;52.528;13.340;2024-01-16T03:47:05;2.70;;;2.37;;
16577;SDS011;8401;52.528;13.340;2024-01-16T03:49:31;3.23;;;1.80;;
16577;SDS011;8401;52.528;13.340;2024-01-16T03:51:58;4.40;;;1.90;;
16577;SDS011;8401;52.528;13.340;2024-01-16T03:54:24;5.10;;;2.13;;
16577;SDS011;8401;52.528;13.340;2024-01-16T03:56:50;2.80;;;2.10;;
16577;SDS011;8401;52.528;13.340;2024-01-16T03:59:16;4.07;;;2.10;;
16577;SDS011;8401;52.528;13.340;2024-01-16T04:01:42;4.10;;;2.27;;
16577;SDS011;8401;52.528;13.340;2024-01-16T04:04:09;3.60;;;2.30;;
16577;SDS011;8401;52.528;13.340;2024-01-16T04:06:35;3.07;;;1.90;;
16577;SDS011;8401;52.528;13.340;2024-01-16T04:09:01;3.87;;;2.27;;
16577;SDS011;8401;52.528;13.340;2024-01-16T04:11:28;6.03;;;2.70;;
16577;SDS011;8401;52.528;13.340;2024-01-16T04:13:54;6.47;;;2.70;;
16577;SDS011;8401;52.528;13.340;2024-01-16T04:16:20;3.70;;;2.27;;
16577;SDS011;8401;52.528;13.340;2024-01-16T04:18:46;3.73;;;2.70;;
16577;SDS011;8401;52.528;13.340;2024-01-16T04:21:13;6.40;;;2.90;;
16577;SDS011;8401;52.528;13.340;2024-01-16T04:23:38;5.03;;;2.50;;
16577;SDS011;8401;52.528;13.340;2024-01-16T04:26:06;4.33;;;2.30;;
16577;SDS011;8401;52.528;13.340;2024-01-16T04:28:32;3.40;;;1.87;;
16577;SDS011;8401;52.528;13.340;2024-01-16T04:30:59;3.93;;;2.00;;
16577;SDS011;8401;52.528;13.340;2024-01-16T04:33:26;6.00;;;2.30;;
16577;SDS011;8401;52.528;13.340;2024-01-16T04:35:52;3.40;;;2.43;;
16577;SDS011;8401;52.528;13.340;2024-01-16T04:38:17;3.80;;;2.13;;
16577;SDS011;8401;52.528;13.340;2024-01-16T04:40:43;5.20;;;2.27;;
16577;SDS011;8401;52.528;13.340;2024-01-16T04:43:08;5.13;;;2.10;;
16577;SDS011;8401;52.528;13.340;2024-01-16T04:45:34;3.40;;;2.00;;
16577;SDS011;8401;52.528;13.340;2024-01-16T04:48:00;5.40;;;1.77;;
16577;SDS011;8401;52.528;13.340;2024-01-16T04:50:25;2.97;;;1.90;;
16577;SDS011;8401;52.528;13.340;2024-01-16T04:52:56;5.27;;;2.00;;
16577;SDS011;8401;52.528;13.340;2024-01-16T04:55:26;3.87;;;2.10;;
16577;SDS011;8401;52.528;13.340;2024-01-16T04:57:52;3.43;;;1.90;;
16577;SDS011;8401;52.528;13.340;2024-01-16T05:00:19;3.90;;;2.53;;
16577;SDS011;8401;52.528;13.340;2024-01-16T05:02:45;4.80;;;2.70;;
16577;SDS011;8401;52.528;13.340;2024-01-16T05:05:11;4.97;;;3.17;;
16577;SDS011;8401;52.528;13.340;2024-01-16T05:07:37;6.73;;;2.80;;
16577;SDS011;8401;52.528;13.340;2024-01-16T05:10:03;4.50;;;2.43;;
16577;SDS011;8401;52.528;13.340;2024-01-16T05:12:29;5.07;;;3.17;;
16577;SDS011;8401;52.528;13.340;2024-01-16T05:14:55;3.73;;;2.50;;
16577;SDS011;8401;52.528;13.340;2024-01-16T05:17:20;4.77;;;2.60;;
16577;SDS011;8401;52.528;13.340;2024-01-16T05:19:46;3.93;;;2.70;;
16577;SDS011;8401;52.528;13.340;2024-01-16T05:22:11;4.97;;;3.00;;
16577;SDS011;8401;52.528;13.340;2024-01-16T05:24:37;5.23;;;3.03;;
16577;SDS011;8401;52.528;13.340;2024-01-16T05:27:03;3.80;;;2.80;;
16577;SDS011;8401;52.528;13.340;2024-01-16T05:29:29;4.53;;;2.70;;
16577;SDS011;8401;52.528;13.340;2024-01-16T05:31:56;4.63;;;2.60;;
16577;SDS011;8401;52.528;13.340;2024-01-16T05:34:22;3.67;;;2.63;;
16577;SDS011;8401;52.528;13.340;2024-01-16T05:36:47;8.67;;;3.50;;
16577;SDS011;8401;52.528;13.340;2024-01-16T05:39:13;4.83;;;3.10;;
16577;SDS011;8401;52.528;13.340;2024-01-16T05:41:38;5.27;;;3.10;;
16577;SDS011;8401;52.528;13.340;2024-01-16T05:44:04;5.57;;;2.90;;
16577;SDS011;8401;52.528;13.340;2024-01-16T05:46:33;8.93;;;2.90;;
16577;SDS011;8401;52.528;13.340;2024-01-16T05:48:59;6.13;;;3.67;;
16577;SDS011;8401;52.528;13.340;2024-01-16T05:51:26;5.87;;;3.43;;
16577;SDS011;8401;52.528;13.340;2024-01-16T05:53:52;5.40;;;3.70;;
16577;SDS011;8401;52.528;13.340;2024-01-16T05:56:18;10.13;;;3.50;;
16577;SDS011;8401;52.528;13.340;2024-01-16T05:58:44;7.77;;;3.67;;
16577;SDS011;8401;52.528;13.340;2024-01-16T06:01:09;7.90;;;3.77;;
16577;SDS011;8401;52.528;13.340;2024-01-16T06:03:38;6.83;;;3.97;;
16577;SDS011;8401;52.528;13.340;2024-01-16T06:06:04;9.27;;;3.40;;
16577;SDS011;8401;52.528;13.340;2024-01-16T06:08:30;6.43;;;2.73;;
16577;SDS011;8401;52.528;13.340;2024-01-16T06:10:56;5.70;;;3.47;;
16577;SDS011;8401;52.528;13.340;2024-01-16T06:13:21;6.33;;;3.70;;
16577;SDS011;8401;52.528;13.340;2024-01-16T06:15:47;5.47;;;3.40;;
16577;SDS011;8401;52.528;13.340;2024-01-16T06:18:13;6.60;;;3.23;;
16577;SDS011;8401;52.528;13.340;2024-01-16T06:20:38;6.70;;;3.67;;
16577;SDS011;8401;52.528;13.340;2024-01-16T06:23:04;6.90;;;3.23;;
16577;SDS011;8401;52.528;13.340;2024-01-16T06:25:30;6.97;;;3.53;;
16577;SDS011;8401;52.528;13.340;2024-01-16T06:27:55;6.30;;;3.23;;
16577;SDS011;8401;52.528;13.340;2024-01-16T06:30:21;6.43;;;4.13;;
16577;SDS011;8401;52.528;13.340;2024-01-16T06:32:48;7.07;;;3.80;;
16577;SDS011;8401;52.528;13.340;2024-01-16T06:35:14;7.43;;;4.00;;
16577;SDS011;8401;52.528;13.340;2024-01-16T06:37:40;5.53;;;3.63;;
16577;SDS011;8401;52.528;13.340;2024-01-16T06:40:06;8.47;;;4.30;;
16577;SDS011;8401;52.528;13.340;2024-01-16T06:42:32;10.10;;;5.80;;
16577;SDS011;8401;52.528;13.340;2024-01-16T06:44:58;10.60;;;5.03;;
16577;SDS011;8401;52.528;13.340;2024-01-16T06:47:25;11.80;;;5.30;;
16577;SDS011;8401;52.528;13.340;2024-01-16T06:49:50;8.87;;;4.60;;
16577;SDS011;8401;52.528;13.340;2024-01-16T06:52:16;8.13;;;4.87;;
16577;SDS011;8401;52.528;13.340;2024-01-16T06:54:42;10.93;;;5.20;;
16577;SDS011;8401;52.528;13.340;2024-01-16T06:57:07;7.47;;;4.83;;
16577;SDS011;8401;52.528;13.340;2024-01-16T06:59:33;9.20;;;5.23;;
16577;SDS011;8401;52.528;13.340;2024-01-16T07:01:58;11.33;;;5.70;;
16577;SDS011;8401;52.528;13.340;2024-01-16T07:04:24;10.23;;;4.90;;
16577;SDS011;8401;52.528;13.340;2024-01-16T07:06:50;9.67;;;5.67;;
16577;SDS011;8401;52.528;13.340;2024-01-16T07:09:15;8.07;;;4.70;;
16577;SDS011;8401;52.528;13.340;2024-01-16T07:11:43;7.53;;;4.17;;
16577;SDS011;8401;52.528;13.340;2024-01-16T07:14:09;9.67;;;6.53;;
16577;SDS011;8401;52.528;13.340;2024-01-16T07:16:35;11.00;;;5.77;;
16577;SDS011;8401;52.528;13.340;2024-01-16T07:19:01;13.33;;;6.07;;
16577;SDS011;8401;52.528;13.340;2024-01-16T07:21:27;18.47;;;11.87;;
16577;SDS011;8401;52.528;13.340;2024-01-16T07:23:53;13.40;;;8.00;;
16577;SDS011;8401;52.528;13.340;2024-01-16T07:26:19;13.00;;;7.63;;
16577;SDS011;8401;52.528;13.340;2024-01-16T07:28:45;8.83;;;4.93;;
16577;SDS011;8401;52.528;13.340;2024-01-16T07:31:13;8.80;;;5.03;;
16577;SDS011;8401;52.528;13.340;2024-01-16T07:33:39;7.23;;;4.20;;
16577;SDS011;8401;52.528;13.340;2024-01-16T07:36:05;5.87;;;3.80;;
16577;SDS011;8401;52.528;13.340;2024-01-16T07:38:31;8.13;;;4.20;;
16577;SDS011;8401;52.528;13.340;2024-01-16T07:40:57;8.97;;;5.17;;
16577;SDS011;8401;52.528;13.340;2024-01-16T07:43:23;8.83;;;4.70;;
16577;SDS011;8401;52.528;13.340;2024-01-16T07:45:49;9.13;;;5.43;;
16577;SDS011;8401;52.528;13.340;2024-01-16T07:48:14;10.20;;;6.10;;
16577;SDS011;8401;52.528;13.340;2024-01-16T07:50:40;7.47;;;5.47;;
16577;SDS011;8401;52.528;13.340;2024-01-16T07:53:06;9.97;;;5.43;;
16577;SDS011;8401;52.528;13.340;2024-01-16T07:55:31;10.50;;;6.33;;
16577;SDS011;8401;52.528;13.340;2024-01-16T07:57:57;8.77;;;5.70;;
16577;SDS011;8401;52.528;13.340;2024-01-16T08:00:23;8.60;;;5.73;;
16577;SDS011;8401;52.528;13.340;2024-01-16T08:02:48;8.93;;;5.80;;
16577;SDS011;8401;52.528;13.340;2024-01-16T08:05:14;11.40;;;5.40;;
16577;SDS011;8401;52.528;13.340;2024-01-16T08:07:42;8.17;;;4.37;;
16577;SDS011;8401;52.528;13.340;2024-01-16T08:10:08;9.23;;;4.83;;
16577;SDS011;8401;52.528;13.340;2024-01-16T08:12:36;5.07;;;3.40;;
16577;SDS011;8401;52.528;13.340;2024-01-16T08:15:02;5.60;;;3.57;;
16577;SDS011;8401;52.528;13.340;2024-01-16T08:17:29;4.70;;;2.93;;
16577;SDS011;8401;52.528;13.340;2024-01-16T08:19:54;6.67;;;2.97;;
16577;SDS011;8401;52.528;13.340;2024-01-16T08:22:20;6.13;;;3.63;;
16577;SDS011;8401;52.528;13.340;2024-01-16T08:24:46;7.30;;;3.23;;
16577;SDS011;8401;52.528;13.340;2024-01-16T08:27:11;6.07;;;3.47;;
16577;SDS011;8401;52.528;13.340;2024-01-16T08:29:37;6.33;;;3.50;;
16577;SDS011;8401;52.528;13.340;2024-01-16T08:32:03;13.03;;;7.23;;
16577;SDS011;8401;52.528;13.340;2024-01-16T08:34:29;10.97;;;7.17;;
16577;SDS011;8401;52.528;13.340;2024-01-16T08:36:54;7.83;;;4.73;;
16577;SDS011;8401;52.528;13.340;2024-01-16T08:39:22;6.47;;;3.70;;
16577;SDS011;8401;52.528;13.340;2024-01-16T08:41:49;4.60;;;3.40;;
16577;SDS011;8401;52.528;13.340;2024-01-16T08:44:15;7.57;;;3.70;;
16577;SDS011;8401;52.528;13.340;2024-01-16T08:46:40;8.03;;;3.80;;
16577;SDS011;8401;52.528;13.340;2024-01-16T08:49:06;7.33;;;4.10;;
16577;SDS011;8401;52.528;13.340;2024-01-16T08:51:31;10.73;;;5.33;;
16577;SDS011;8401;52.528;13.340;2024-01-16T08:53:57;7.37;;;4.23;;
16577;SDS011;8401;52.528;13.340;2024-01-16T08:56:23;6.70;;;4.47;;
16577;SDS011;8401;52.528;13.340;2024-01-16T08:58:48;9.30;;;4.40;;
16577;SDS011;8401;52.528;13.340;2024-01-16T09:01:14;6.77;;;4.37;;
16577;SDS011;8401;52.528;13.340;2024-01-16T09:03:39;7.00;;;5.10;;
16577;SDS011;8401;52.528;13.340;2024-01-16T09:06:06;8.07;;;4.50;;
16577;SDS011;8401;52.528;13.340;2024-01-16T09:08:31;7.57;;;4.17;;
16577;SDS011;8401;52.528;13.340;2024-01-16T09:10:57;9.37;;;4.73;;
16577;SDS011;8401;52.528;13.340;2024-01-16T09:13:23;9.00;;;4.60;;
16577;SDS011;8401;52.528;13.340;2024-01-16T09:15:48;8.30;;;4.80;;
16577;SDS011;8401;52.528;13.340;2024-01-16T09:18:15;9.67;;;4.97;;
16577;SDS011;8401;52.528;13.340;2024-01-16T09:20:41;9.47;;;5.23;;
16577;SDS011;8401;52.528;13.340;2024-01-16T09:23:10;10.83;;;6.70;;
16577;SDS011;8401;52.528;13.340;2024-01-16T09:25:36;8.47;;;5.70;;
16577;SDS011;8401;52.528;13.340;2024-01-16T09:28:01;9.90;;;4.90;;
16577;SDS011;8401;52.528;13.340;2024-01-16T09:30:27;12.47;;;5.07;;
16577;SDS011;8401;52.528;13.340;2024-01-16T09:32:53;9.00;;;4.80;;
16577;SDS011;8401;52.528;13.340;2024-01-16T09:35:19;5.77;;;3.80;;
16577;SDS011;8401;52.528;13.340;2024-01-16T09:37:44;8.23;;;4.10;;
16577;SDS011;8401;52.528;13.340;2024-01-16T09:40:10;7.67;;;4.33;;
16577;SDS011;8401;52.528;13.340;2024-01-16T09:42:36;8.63;;;4.30;;
16577;SDS011;8401;52.528;13.340;2024-01-16T09:45:02;9.77;;;5.23;;
16577;SDS011;8401;52.528;13.340;2024-01-16T09:47:31;6.33;;;4.10;;
16577;SDS011;8401;52.528;13.340;2024-01-16T09:49:57;7.33;;;4.50;;
16577;SDS011;8401;52.528;13.340;2024-01-16T09:52:25;6.33;;;3.90;;
16577;SDS011;8401;52.528;13.340;2024-01-16T09:54:51;5.27;;;3.83;;
16577;SDS011;8401;52.528;13.340;2024-01-16T09:57:18;7.53;;;3.90;;
16577;SDS011;8401;52.528;13.340;2024-01-16T09:59:48;9.17;;;4.17;;
16577;SDS011;8401;52.528;13.340;2024-01-16T10:02:14;6.63;;;4.00;;
16577;SDS011;8401;52.528;13.340;2024-01-16T10:04:42;8.70;;;4.17;;
16577;SDS011;8401;52.528;13.340;2024-01-16T10:07:09;11.10;;;5.77;;
16577;SDS011;8401;52.528;13.340;2024-01-16T10:09:37;7.57;;;3.77;;
16577;SDS011;8401;52.528;13.340;2024-01-16T10:12:04;5.97;;;3.67;;
16577;SDS011;8401;52.528;13.340;2024-01-16T10:14:31;5.37;;;3.77;;
16577;SDS011;8401;52.528;13.340;2024-01-16T10:16:58;6.97;;;3.83;;
16577;SDS011;8401;52.528;13.340;2024-01-16T10:19:30;6.50;;;3.60;;
16577;SDS011;8401;52.528;13.340;2024-01-16T10:22:05;5.57;;;3.33;;
16577;SDS011;8401;52.528;13.340;2024-01-16T10:24:33;4.63;;;3.37;;
16577;SDS011;8401;52.528;13.340;2024-01-16T10:27:00;4.60;;;3.17;;
16577;SDS011;8401;52.528;13.340;2024-01-16T10:29:29;16.53;;;7.53;;
16577;SDS011;8401;52.528;13.340;2024-01-16T10:32:00;7.00;;;3.40;;
16577;SDS011;8401;52.528;13.340;2024-01-16T10:34:25;6.03;;;3.53;;
16577;SDS011;8401;52.528;13.340;2024-01-16T10:36:52;5.87;;;3.57;;
16577;SDS011;8401;52.528;13.340;2024-01-16T10:39:23;16.13;;;6.33;;
16577;SDS011;8401;52.528;13.340;2024-01-16T10:41:55;9.40;;;5.00;;
16577;SDS011;8401;52.528;13.340;2024-01-16T10:44:22;6.50;;;3.07;;
16577;SDS011;8401;52.528;13.340;2024-01-16T10:46:47;6.10;;;3.23;;
16577;SDS011;8401;52.528;13.340;2024-01-16T10:49:13;8.13;;;4.43;;
16577;SDS011;8401;52.528;13.340;2024-01-16T10:51:39;7.07;;;4.30;;
16577;SDS011;8401;52.528;13.340;2024-01-16T10:54:11;4.10;;;2.77;;
16577;SDS011;8401;52.528;13.340;2024-01-16T10:56:41;5.93;;;3.30;;
16577;SDS011;8401;52.528;13.340;2024-01-16T10:59:16;4.87;;;3.20;;
16577;SDS011;8401;52.528;13.340;2024-01-16T11:01:48;6.23;;;3.03;;
16577;SDS011;8401;52.528;13.340;2024-01-16T11:04:17;6.67;;;3.57;;
16577;SDS011;8401;52.528;13.340;2024-01-16T11:06:45;4.30;;;2.30;;
16577;SDS011;8401;52.528;13.340;2024-01-16T11:09:12;6.50;;;2.80;;
16577;SDS011;8401;52.528;13.340;2024-01-16T11:11:43;5.87;;;2.77;;
16577;SDS011;8401;52.528;13.340;2024-01-16T11:14:11;5.43;;;2.60;;
16577;SDS011;8401;52.528;13.340;2024-01-16T11:16:38;6.30;;;2.87;;
16577;SDS011;8401;52.528;13.340;2024-01-16T11:19:07;4.67;;;2.40;;
16577;SDS011;8401;52.528;13.340;2024-01-16T11:21:33;7.83;;;3.20;;
16577;SDS011;8401;52.528;13.340;2024-01-16T11:24:04;5.87;;;2.03;;
16577;SDS011;8401;52.528;13.340;2024-01-16T11:26:31;7.97;;;2.40;;
16577;SDS011;8401;52.528;13.340;2024-01-16T11:28:58;5.07;;;2.70;;
16577;SDS011;8401;52.528;13.340;2024-01-16T11:31:34;4.73;;;2.77;;
16577;SDS011;8401;52.528;13.340;2024-01-16T11:34:03;10.23;;;4.87;;
16577;SDS011;8401;52.528;13.340;2024-01-16T11:39:21;13.70;;;6.50;;
16577;SDS011;8401;52.528;13.340;2024-01-16T11:47:03;28.27;;;15.23;;
16577;SDS011;8401;52.528;13.340;2024-01-16T11:49:30;8.60;;;4.40;;
16577;SDS011;8401;52.528;13.340;2024-01-16T11:51:57;16.37;;;6.10;;
16577;SDS011;8401;52.528;13.340;2024-01-16T11:54:22;10.87;;;3.93;;
16577;SDS011;8401;52.528;13.340;2024-01-16T11:57:08;6.27;;;3.70;;
16577;SDS011;8401;52.528;13.340;2024-01-16T11:59:57;6.07;;;3.53;;
16577;SDS011;8401;52.528;13.340;2024-01-16T12:05:19;8.30;;;4.37;;
16577;SDS011;8401;52.528;13.340;2024-01-16T12:10:14;14.97;;;5.03;;
16577;SDS011;8401;52.528;13.340;2024-01-16T12:12:41;9.63;;;4.83;;
16577;SDS011;8401;52.528;13.340;2024-01-16T12:15:12;7.13;;;4.63;;
16577;SDS011;8401;52.528;13.340;2024-01-16T12:17:50;7.63;;;3.90;;
16577;SDS011;8401;52.528;13.340;2024-01-16T12:20:23;7.37;;;4.47;;
16577;SDS011;8401;52.528;13.340;2024-01-16T12:22:56;11.30;;;5.50;;
16577;SDS011;8401;52.528;13.340;2024-01-16T12:25:24;8.50;;;4.80;;
16577;SDS011;8401;52.528;13.340;2024-01-16T12:38:10;7.20;;;3.97;;
16577;SDS011;8401;52.528;13.340;2024-01-16T12:40:54;8.07;;;4.10;;
16577;SDS011;8401;52.528;13.340;2024-01-16T12:43:20;8.57;;;4.03;;
16577;SDS011;8401;52.528;13.340;2024-01-16T12:45:46;7.73;;;4.17;;
16577;SDS011;8401;52.528;13.340;2024-01-16T12:48:22;9.37;;;4.57;;
16577;SDS011;8401;52.528;13.340;2024-01-16T12:50:48;8.70;;;3.23;;
16577;SDS011;8401;52.528;13.340;2024-01-16T12:53:14;7.97;;;3.37;;
16577;SDS011;8401;52.528;13.340;2024-01-16T12:55:41;9.27;;;3.87;;
16577;SDS011;8401;52.528;13.340;2024-01-16T12:58:20;10.80;;;3.90;;
16577;SDS011;8401;52.528;13.340;2024-01-16T13:00:49;10.90;;;4.17;;
16577;SDS011;8401;52.528;13.340;2024-01-16T13:03:20;7.13;;;3.67;;
16577;SDS011;8401;52.528;13.340;2024-01-16T13:05:59;13.77;;;4.67;;
16577;SDS011;8401;52.528;13.340;2024-01-16T13:08:25;9.13;;;3.40;;
16577;SDS011;8401;52.528;13.340;2024-01-16T13:11:01;6.83;;;2.87;;
16577;SDS011;8401;52.528;13.340;2024-01-16T13:13:34;5.07;;;2.90;;
16577;SDS011;8401;52.528;13.340;2024-01-16T13:16:02;5.47;;;3.23;;
16577;SDS011;8401;52.528;13.340;2024-01-16T13:18:30;9.10;;;3.97;;
16577;SDS011;8401;52.528;13.340;2024-01-16T13:20:57;7.80;;;3.60;;
16577;SDS011;8401;52.528;13.340;2024-01-16T13:23:24;12.00;;;3.63;;
16577;SDS011;8401;52.528;13.340;2024-01-16T13:25:50;9.70;;;3.87;;
16577;SDS011;8401;52.528;13.340;2024-01-16T13:28:17;8.97;;;3.63;;
16577;SDS011;8401;52.528;13.340;2024-01-16T13:30:46;4.77;;;2.80;;
16577;SDS011;8401;52.528;13.340;2024-01-16T13:33:12;6.90;;;3.37;;
16577;SDS011;8401;52.528;13.340;2024-01-16T13:35:39;7.63;;;3.83;;
16577;SDS011;8401;52.528;13.340;2024-01-16T13:38:06;9.70;;;3.80;;
16577;SDS011;8401;52.528;13.340;2024-01-16T13:40:33;13.87;;;4.23;;
16577;SDS011;8401;52.528;13.340;2024-01-16T13:43:00;8.40;;;3.57;;
16577;SDS011;8401;52.528;13.340;2024-01-16T13:45:26;12.43;;;3.93;;
16577;SDS011;8401;52.528;13.340;2024-01-16T13:47:53;10.63;;;2.67;;
16577;SDS011;8401;52.528;13.340;2024-01-16T13:50:22;9.47;;;3.00;;
16577;SDS011;8401;52.528;13.340;2024-01-16T13:52:48;6.47;;;2.90;;
16577;SDS011;8401;52.528;13.340;2024-01-16T13:55:14;8.70;;;2.97;;
16577;SDS011;8401;52.528;13.340;2024-01-16T13:57:40;6.63;;;2.67;;
16577;SDS011;8401;52.528;13.340;2024-01-16T14:00:11;6.80;;;3.20;;
16577;SDS011;8401;52.528;13.340;2024-01-16T14:02:42;5.47;;;3.10;;
16577;SDS011;8401;52.528;13.340;2024-01-16T14:05:12;8.40;;;2.83;;
16577;SDS011;8401;52.528;13.340;2024-01-16T14:07:46;7.20;;;3.57;;
16577;SDS011;8401;52.528;13.340;2024-01-16T14:10:15;7.10;;;3.33;;
16577;SDS011;8401;52.528;13.340;2024-01-16T14:12:42;9.23;;;3.03;;
16577;SDS011;8401;52.528;13.340;2024-01-16T14:15:13;9.10;;;3.50;;
16577;SDS011;8401;52.528;13.340;2024-01-16T14:17:48;8.00;;;2.73;;
16577;SDS011;8401;52.528;13.340;2024-01-16T14:20:18;10.03;;;3.40;;
16577;SDS011;8401;52.528;13.340;2024-01-16T14:22:53;7.27;;;2.83;;
16577;SDS011;8401;52.528;13.340;2024-01-16T14:25:19;7.03;;;3.57;;
16577;SDS011;8401;52.528;13.340;2024-01-16T14:27:47;8.77;;;3.10;;
16577;SDS011;8401;52.528;13.340;2024-01-16T14:30:34;5.63;;;2.90;;
16577;SDS011;8401;52.528;13.340;2024-01-16T14:33:01;10.80;;;3.80;;
16577;SDS011;8401;52.528;13.340;2024-01-16T14:35:27;11.23;;;3.50;;
16577;SDS011;8401;52.528;13.340;2024-01-16T14:37:52;9.07;;;2.87;;
16577;SDS011;8401;52.528;13.340;2024-01-16T14:40:18;5.90;;;3.00;;
16577;SDS011;8401;52.528;13.340;2024-01-16T14:42:51;7.13;;;3.30;;
16577;SDS011;8401;52.528;13.340;2024-01-16T14:45:21;12.80;;;3.73;;
16577;SDS011;8401;52.528;13.340;2024-01-16T14:47:47;8.67;;;3.47;;
16577;SDS011;8401;52.528;13.340;2024-01-16T14:50:14;5.77;;;3.20;;
16577;SDS011;8401;52.528;13.340;2024-01-16T14:52:42;6.83;;;2.97;;
16577;SDS011;8401;52.528;13.340;2024-01-16T14:55:11;11.60;;;4.73;;
16577;SDS011;8401;52.528;13.340;2024-01-16T14:57:37;9.40;;;4.13;;
16577;SDS011;8401;52.528;13.340;2024-01-16T15:00:12;6.87;;;3.90;;
16577;SDS011;8401;52.528;13.340;2024-01-16T15:02:47;8.73;;;3.27;;
16577;SDS011;8401;52.528;13.340;2024-01-16T15:05:14;7.83;;;3.30;;
16577;SDS011;8401;52.528;13.340;2024-01-16T15:07:41;9.30;;;3.30;;
16577;SDS011;8401;52.528;13.340;2024-01-16T15:10:08;6.07;;;3.73;;